Sea Cloud II — 9HUE6 — position and weather

sailwx.info

Track history (hours):
 
Tides and Currents Weather Stations Pressure Air Temp Water Temp Dewpoint Dewpoint Depression Visibility Wind Speed Wind Dir Waves Ship Positions

Sea Cloud II

Ship's website: http://www.seacloud.com/en/the-ships/sea-cloud-ii.html

Last reported at 2016-Jun-25 03:33 UTC. Time now 2016-Jun-25 05:19 UTC.
Position N 55°29' E 018°32'.

Length 117 m; draft 5.8 m.

Type: Passenger vessel. MMSI: 248953000.

Date/timePositionNaut miles runAvg speedWind from/ knotsBaromVisibWave heightAir tempDewpointWater temp
2016-Jun-25 03:33N 55°29' E 018°32'6 6.2
2016-Jun-25 02:33N 55°23' E 018°37'5 4.6
2016-Jun-25 01:33N 55°19' E 018°40'5 4.7
2016-Jun-25 00:33N 55°15' E 018°43'5 4.8
2016-Jun-24 23:33N 55°10' E 018°45'5 4.9
2016-Jun-24 22:33N 55°05' E 018°48'5 4.9
2016-Jun-24 21:33N 55°01' E 018°51'5 4.8
2016-Jun-24 20:33N 54°56' E 018°54'8 7.7
2016-Jun-24 19:33N 54°49' E 018°58'8 7.6
2016-Jun-24 18:33N 54°41' E 018°59'9 8.9
2016-Jun-24 17:33N 54°34' E 018°51'1110.7
2016-Jun-24 16:33N 54°26' E 018°39'2 1.7
2016-Jun-24 15:33N 54°24' E 018°41'0 0.0
2016-Jun-24 14:31N 54°24' E 018°41'0 0.0
2016-Jun-24 13:33N 54°24' E 018°41'0 0.0
2016-Jun-24 12:34N 54°24' E 018°41'0 0.0
2016-Jun-24 11:33N 54°24' E 018°41'0 0.0
2016-Jun-24 10:33N 54°24' E 018°41'0 0.0
2016-Jun-24 09:33N 54°24' E 018°41'0 0.0
2016-Jun-24 08:34N 54°24' E 018°41'0 0.0
2016-Jun-24 07:33N 54°24' E 018°41'6 2.0
2016-Jun-24 04:33N 54°30' E 018°44'8 8.0
2016-Jun-24 03:33N 54°36' E 018°53'1010.0
2016-Jun-24 02:33N 54°45' E 019°00'1010.4
2016-Jun-24 01:33N 54°53' E 018°48'1110.6
2016-Jun-24 00:33N 55°01' E 018°35'1111.0
2016-Jun-23 23:33N 55°04' E 018°17'1111.0
2016-Jun-23 22:33N 55°06' E 017°58'1111.0
2016-Jun-23 21:33N 55°09' E 017°39'1110.8
2016-Jun-23 20:33N 55°12' E 017°21'60 8.4
2016-Jun-23 13:22N 55°22' E 015°37'2 3.0
2016-Jun-23 12:33N 55°21' E 015°34'3 3.4
2016-Jun-23 11:33N 55°19' E 015°29'3 2.7
2016-Jun-23 10:26N 55°17' E 015°25'9 9.1
2016-Jun-23 09:29N 55°20' E 015°11'0 0.0
2016-Jun-23 08:29N 55°20' E 015°11'0 0.0
2016-Jun-23 07:20N 55°20' E 015°11'1 0.8
2016-Jun-23 05:33N 55°20' E 015°09'7 7.3
2016-Jun-23 04:33N 55°22' E 014°57'8 7.5
2016-Jun-23 03:33N 55°24' E 014°44'8 8.1
2016-Jun-23 02:33N 55°19' E 014°32'8 8.2
2016-Jun-23 01:33N 55°13' E 014°23'8 8.2
2016-Jun-23 00:33N 55°11' E 014°09'8 8.3
2016-Jun-22 23:33N 55°10' E 013°54'9 8.6
2016-Jun-22 22:33N 55°11' E 013°39'9 8.9
2016-Jun-22 21:33N 55°12' E 013°24'9 8.6
2016-Jun-22 20:33N 55°12' E 013°09'1211.7
2016-Jun-22 19:33N 55°15' E 012°49'10 9.9
2016-Jun-22 18:33N 55°23' E 012°38'1111.1
2016-Jun-22 17:33N 55°34' E 012°42'1110.5
2016-Jun-22 16:33N 55°44' E 012°41'1111.0
2016-Jun-22 15:33N 55°55' E 012°38'1 1.0
2016-Jun-22 14:33N 55°55' E 012°36'5 4.7
2016-Jun-22 13:33N 55°51' E 012°40'4 4.3
2016-Jun-22 12:33N 55°46' E 012°40'5 5.2
2016-Jun-22 11:33N 55°42' E 012°36'0 0.2
2016-Jun-22 10:32N 55°41' E 012°36'0 0.0
2016-Jun-22 09:32N 55°41' E 012°36'0 0.0
2016-Jun-22 08:32N 55°41' E 012°36'0 0.0
2016-Jun-22 07:32N 55°41' E 012°36'0 0.0
2016-Jun-22 06:32N 55°41' E 012°36'0 0.3
2016-Jun-22 05:33N 55°42' E 012°36'8 7.7
2016-Jun-22 04:33N 55°49' E 012°41'5 4.7
2016-Jun-22 03:33N 55°53' E 012°39'6 6.1
2016-Jun-22 02:33N 55°59' E 012°40'6 6.0
2016-Jun-22 01:33N 56°05' E 012°35'8 8.2
2016-Jun-22 00:33N 56°10' E 012°24'9 8.5
2016-Jun-21 23:33N 56°15' E 012°11'17 8.5
2016-Jun-21 21:33N 56°30' E 011°58'9 9.0
2016-Jun-21 20:33N 56°39' E 011°55'1212.0
2016-Jun-21 19:33N 56°50' E 011°49'1313.0
2016-Jun-21 18:33N 57°03' E 011°41'1212.5
2016-Jun-21 17:33N 57°14' E 011°33'1312.6
2016-Jun-21 16:33N 57°26' E 011°25'7 6.7
2016-Jun-21 15:33N 57°30' E 011°15'4 4.4
2016-Jun-21 14:33N 57°33' E 011°08'5 4.9
2016-Jun-21 13:33N 57°36' E 011°01'6 5.8
2016-Jun-21 12:33N 57°39' E 010°52'6 5.5
2016-Jun-21 11:33N 57°41' E 010°42'4 4.2
2016-Jun-21 10:32N 57°43' E 010°35'0 0.0
2016-Jun-21 09:32N 57°43' E 010°35'0 0.0
2016-Jun-21 07:26N 57°43' E 010°35'5 1.5
2016-Jun-21 04:29N 57°43' E 010°44'6 6.6
2016-Jun-21 03:33N 57°49' E 010°41'11 9.0
2016-Jun-21 02:17N 57°49' E 010°20'199 5.6
2016-Jun-19 14:33N 55°11' E 006°41'5 4.7
2016-Jun-19 13:33N 55°06' E 006°40'3 2.9
2016-Jun-19 12:33N 55°03' E 006°39'3 3.0
2016-Jun-19 11:32N 55°00' E 006°37'3 3.3
2016-Jun-19 10:32N 54°57' E 006°34'26 4.0
2016-Jun-19 04:08N 54°35' E 006°55'7 8.4
2016-Jun-19 03:19N 54°30' E 007°04'810.5
2016-Jun-19 02:33N 54°25' E 007°15'1111.0
2016-Jun-19 01:34N 54°18' E 007°30'1111.3
2016-Jun-19 00:33N 54°11' E 007°45'1111.3
2016-Jun-18 23:33N 54°04' E 007°60'1010.3
2016-Jun-18 22:33N 54°00' E 008°16'1010.3
2016-Jun-18 21:33N 53°58' E 008°33'9 9.0
2016-Jun-18 20:33N 53°52' E 008°44'1010.0
2016-Jun-18 19:33N 53°52' E 009°01'1111.3
2016-Jun-18 18:33N 53°50' E 009°20'1313.4
2016-Jun-18 17:34N 53°39' E 009°31'1313.1
2016-Jun-18 16:33N 53°33' E 009°51'5 4.6
2016-Jun-18 15:33N 53°33' E 009°59'0 0.0
2016-Jun-18 14:33N 53°33' E 009°59'0 0.0
2016-Jun-18 13:33N 53°33' E 009°59'0 0.0
2016-Jun-18 12:33N 53°33' E 009°59'0 0.0
2016-Jun-18 11:33N 53°33' E 009°59'0 0.0
2016-Jun-18 10:33N 53°33' E 009°59'0 0.0
2016-Jun-18 09:33N 53°33' E 009°59'0 0.0
2016-Jun-18 08:33N 53°33' E 009°59'0 0.0
2016-Jun-18 07:33N 53°33' E 009°59'0 0.0
2016-Jun-18 06:33N 53°33' E 009°59'0 0.0
2016-Jun-18 05:33N 53°33' E 009°59'3 3.2
2016-Jun-18 04:33N 53°32' E 009°53'9 9.0
2016-Jun-18 03:33N 53°34' E 009°38'9 9.2
2016-Jun-18 02:33N 53°42' E 009°30'10 9.8
2016-Jun-18 01:33N 53°50' E 009°20'9 9.0
2016-Jun-18 00:33N 53°53' E 009°06'1010.0
2016-Jun-17 23:33N 53°50' E 008°49'10 9.9
2016-Jun-17 22:33N 53°57' E 008°37'1010.1
2016-Jun-17 21:33N 53°59' E 008°20'8 8.3
2016-Jun-17 20:34N 53°59' E 008°06'6 6.2
2016-Jun-17 19:33N 53°57' E 007°56'7 6.9
2016-Jun-17 18:30N 53°56' E 007°44'7 7.1
2016-Jun-17 17:27N 53°54' E 007°31'6 6.8
2016-Jun-17 16:33N 53°53' E 007°21'5 4.8
2016-Jun-17 15:34N 53°52' E 007°14'4 4.0
2016-Jun-17 14:33N 53°51' E 007°07'3 3.1
2016-Jun-17 13:33N 53°50' E 007°02'2 1.7
2016-Jun-17 12:33N 53°50' E 006°59'1 1.2
2016-Jun-17 11:33N 53°49' E 006°57'1 0.9
2016-Jun-17 10:33N 53°49' E 006°56'1 1.1
2016-Jun-17 09:33N 53°49' E 006°54'2 1.7
2016-Jun-17 08:33N 53°49' E 006°51'3 3.4
2016-Jun-17 07:33N 53°48' E 006°46'5 5.3
2016-Jun-17 06:33N 53°47' E 006°37'1312.6
2016-Jun-17 05:33N 53°44' E 006°16'1413.5
2016-Jun-17 04:33N 53°40' E 005°54'1313.4
2016-Jun-17 03:33N 53°36' E 005°33'1413.6
2016-Jun-17 02:33N 53°32' E 005°11'3112.7
2016-Jun-17 00:05N 53°11' E 004°31'812.8
2016-Jun-16 23:29N 53°04' E 004°25'1312.2
2016-Jun-16 22:28N 52°53' E 004°15'1111.6
2016-Jun-16 21:32N 52°43' E 004°11'1111.5
2016-Jun-16 20:33N 52°33' E 004°21'1010.4
2016-Jun-16 19:33N 52°28' E 004°36'3 2.7
2016-Jun-16 18:34N 52°27' E 004°40'9 9.1
2016-Jun-16 17:33N 52°23' E 004°54'1 1.2
2016-Jun-16 16:32N 52°23' E 004°55'0 0.0
2016-Jun-16 15:32N 52°23' E 004°55'0 0.0
2016-Jun-16 14:32N 52°23' E 004°55'0 0.0
2016-Jun-16 13:32N 52°23' E 004°55'0 0.0
2016-Jun-16 12:32N 52°23' E 004°55'0 0.0
2016-Jun-16 11:32N 52°23' E 004°55'0 0.0
2016-Jun-16 10:32N 52°23' E 004°55'0 0.0
2016-Jun-16 09:32N 52°23' E 004°55'0 0.0
2016-Jun-16 08:32N 52°23' E 004°55'0 0.0
2016-Jun-16 07:32N 52°23' E 004°55'0 0.0
2016-Jun-16 06:32N 52°23' E 004°55'0 0.0
2016-Jun-16 05:32N 52°23' E 004°55'0 0.0
2016-Jun-16 04:32N 52°23' E 004°55'0 0.0
2016-Jun-16 03:32N 52°23' E 004°55'0 0.0
2016-Jun-16 02:32N 52°23' E 004°55'0 0.0
2016-Jun-16 01:32N 52°23' E 004°55'0 0.0
2016-Jun-16 00:32N 52°23' E 004°55'0 0.0
2016-Jun-15 23:32N 52°23' E 004°55'0 0.0
2016-Jun-15 22:32N 52°23' E 004°55'0 0.0
2016-Jun-15 21:32N 52°23' E 004°55'0 0.0
2016-Jun-15 20:32N 52°23' E 004°55'0 0.0
2016-Jun-15 19:32N 52°23' E 004°55'0 0.0
2016-Jun-15 18:32N 52°23' E 004°55'0 0.0
2016-Jun-15 17:32N 52°23' E 004°55'0 0.0
2016-Jun-15 16:32N 52°23' E 004°55'0 0.0
2016-Jun-15 15:32N 52°23' E 004°55'0 0.0
2016-Jun-15 14:32N 52°23' E 004°55'0 0.0
2016-Jun-15 13:32N 52°23' E 004°55'0 0.0
2016-Jun-15 12:32N 52°23' E 004°55'0 0.0
2016-Jun-15 11:32N 52°23' E 004°55'0 0.0
2016-Jun-15 10:32N 52°23' E 004°55'0 0.0
2016-Jun-15 09:32N 52°23' E 004°55'2 1.6
2016-Jun-15 08:34N 52°24' E 004°53'9 9.2
2016-Jun-15 07:34N 52°28' E 004°40'5 5.0
2016-Jun-15 06:34N 52°28' E 004°32'9 9.1
2016-Jun-15 05:33N 52°28' E 004°17'7 6.5
2016-Jun-15 04:33N 52°28' E 004°06'  
Track history (hours):
 
Tides and Currents Weather Stations Pressure Air Temp Water Temp Dewpoint Dewpoint Depression Visibility Wind Speed Wind Dir Waves Ship Positions

Sea Cloud II

Ship's website: http://www.seacloud.com/en/the-ships/sea-cloud-ii.html

Last reported at 2016-Jun-25 03:33 UTC. Time now 2016-Jun-25 05:19 UTC.
Position N 55°29' E 018°32'.

Length 117 m; draft 5.8 m.

Type: Passenger vessel. MMSI: 248953000.

Date/timePositionNaut miles runAvg speedWind from/ knotsBaromVisibWave heightAir tempDewpointWater temp
2016-Jun-25 03:33N 55°29' E 018°32'6 6.2
2016-Jun-25 02:33N 55°23' E 018°37'5 4.6
2016-Jun-25 01:33N 55°19' E 018°40'5 4.7
2016-Jun-25 00:33N 55°15' E 018°43'5 4.8
2016-Jun-24 23:33N 55°10' E 018°45'5 4.9
2016-Jun-24 22:33N 55°05' E 018°48'5 4.9
2016-Jun-24 21:33N 55°01' E 018°51'5 4.8
2016-Jun-24 20:33N 54°56' E 018°54'8 7.7
2016-Jun-24 19:33N 54°49' E 018°58'8 7.6
2016-Jun-24 18:33N 54°41' E 018°59'9 8.9
2016-Jun-24 17:33N 54°34' E 018°51'1110.7
2016-Jun-24 16:33N 54°26' E 018°39'2 1.7
2016-Jun-24 15:33N 54°24' E 018°41'0 0.0
2016-Jun-24 14:31N 54°24' E 018°41'0 0.0
2016-Jun-24 13:33N 54°24' E 018°41'0 0.0
2016-Jun-24 12:34N 54°24' E 018°41'0 0.0
2016-Jun-24 11:33N 54°24' E 018°41'0 0.0
2016-Jun-24 10:33N 54°24' E 018°41'0 0.0
2016-Jun-24 09:33N 54°24' E 018°41'0 0.0
2016-Jun-24 08:34N 54°24' E 018°41'0 0.0
2016-Jun-24 07:33N 54°24' E 018°41'6 2.0
2016-Jun-24 04:33N 54°30' E 018°44'8 8.0
2016-Jun-24 03:33N 54°36' E 018°53'1010.0
2016-Jun-24 02:33N 54°45' E 019°00'1010.4
2016-Jun-24 01:33N 54°53' E 018°48'1110.6
2016-Jun-24 00:33N 55°01' E 018°35'1111.0
2016-Jun-23 23:33N 55°04' E 018°17'1111.0
2016-Jun-23 22:33N 55°06' E 017°58'1111.0
2016-Jun-23 21:33N 55°09' E 017°39'1110.8
2016-Jun-23 20:33N 55°12' E 017°21'60 8.4
2016-Jun-23 13:22N 55°22' E 015°37'2 3.0
2016-Jun-23 12:33N 55°21' E 015°34'3 3.4
2016-Jun-23 11:33N 55°19' E 015°29'3 2.7
2016-Jun-23 10:26N 55°17' E 015°25'9 9.1
2016-Jun-23 09:29N 55°20' E 015°11'0 0.0
2016-Jun-23 08:29N 55°20' E 015°11'0 0.0
2016-Jun-23 07:20N 55°20' E 015°11'1 0.8
2016-Jun-23 05:33N 55°20' E 015°09'7 7.3
2016-Jun-23 04:33N 55°22' E 014°57'8 7.5
2016-Jun-23 03:33N 55°24' E 014°44'8 8.1
2016-Jun-23 02:33N 55°19' E 014°32'8 8.2
2016-Jun-23 01:33N 55°13' E 014°23'8 8.2
2016-Jun-23 00:33N 55°11' E 014°09'8 8.3
2016-Jun-22 23:33N 55°10' E 013°54'9 8.6
2016-Jun-22 22:33N 55°11' E 013°39'9 8.9
2016-Jun-22 21:33N 55°12' E 013°24'9 8.6
2016-Jun-22 20:33N 55°12' E 013°09'1211.7
2016-Jun-22 19:33N 55°15' E 012°49'10 9.9
2016-Jun-22 18:33N 55°23' E 012°38'1111.1
2016-Jun-22 17:33N 55°34' E 012°42'1110.5
2016-Jun-22 16:33N 55°44' E 012°41'1111.0
2016-Jun-22 15:33N 55°55' E 012°38'1 1.0
2016-Jun-22 14:33N 55°55' E 012°36'5 4.7
2016-Jun-22 13:33N 55°51' E 012°40'4 4.3
2016-Jun-22 12:33N 55°46' E 012°40'5 5.2
2016-Jun-22 11:33N 55°42' E 012°36'0 0.2
2016-Jun-22 10:32N 55°41' E 012°36'0 0.0
2016-Jun-22 09:32N 55°41' E 012°36'0 0.0
2016-Jun-22 08:32N 55°41' E 012°36'0 0.0
2016-Jun-22 07:32N 55°41' E 012°36'0 0.0
2016-Jun-22 06:32N 55°41' E 012°36'0 0.3
2016-Jun-22 05:33N 55°42' E 012°36'8 7.7
2016-Jun-22 04:33N 55°49' E 012°41'5 4.7
2016-Jun-22 03:33N 55°53' E 012°39'6 6.1
2016-Jun-22 02:33N 55°59' E 012°40'6 6.0
2016-Jun-22 01:33N 56°05' E 012°35'8 8.2
2016-Jun-22 00:33N 56°10' E 012°24'9 8.5
2016-Jun-21 23:33N 56°15' E 012°11'17 8.5
2016-Jun-21 21:33N 56°30' E 011°58'9 9.0
2016-Jun-21 20:33N 56°39' E 011°55'1212.0
2016-Jun-21 19:33N 56°50' E 011°49'1313.0
2016-Jun-21 18:33N 57°03' E 011°41'1212.5
2016-Jun-21 17:33N 57°14' E 011°33'1312.6
2016-Jun-21 16:33N 57°26' E 011°25'7 6.7
2016-Jun-21 15:33N 57°30' E 011°15'4 4.4
2016-Jun-21 14:33N 57°33' E 011°08'5 4.9
2016-Jun-21 13:33N 57°36' E 011°01'6 5.8
2016-Jun-21 12:33N 57°39' E 010°52'6 5.5
2016-Jun-21 11:33N 57°41' E 010°42'4 4.2
2016-Jun-21 10:32N 57°43' E 010°35'0 0.0
2016-Jun-21 09:32N 57°43' E 010°35'0 0.0
2016-Jun-21 07:26N 57°43' E 010°35'5 1.5
2016-Jun-21 04:29N 57°43' E 010°44'6 6.6
2016-Jun-21 03:33N 57°49' E 010°41'11 9.0
2016-Jun-21 02:17N 57°49' E 010°20'199 5.6
2016-Jun-19 14:33N 55°11' E 006°41'5 4.7
2016-Jun-19 13:33N 55°06' E 006°40'3 2.9
2016-Jun-19 12:33N 55°03' E 006°39'3 3.0
2016-Jun-19 11:32N 55°00' E 006°37'3 3.3
2016-Jun-19 10:32N 54°57' E 006°34'26 4.0
2016-Jun-19 04:08N 54°35' E 006°55'7 8.4
2016-Jun-19 03:19N 54°30' E 007°04'810.5
2016-Jun-19 02:33N 54°25' E 007°15'1111.0
2016-Jun-19 01:34N 54°18' E 007°30'1111.3
2016-Jun-19 00:33N 54°11' E 007°45'1111.3
2016-Jun-18 23:33N 54°04' E 007°60'1010.3
2016-Jun-18 22:33N 54°00' E 008°16'1010.3
2016-Jun-18 21:33N 53°58' E 008°33'9 9.0
2016-Jun-18 20:33N 53°52' E 008°44'1010.0
2016-Jun-18 19:33N 53°52' E 009°01'1111.3
2016-Jun-18 18:33N 53°50' E 009°20'1313.4
2016-Jun-18 17:34N 53°39' E 009°31'1313.1
2016-Jun-18 16:33N 53°33' E 009°51'5 4.6
2016-Jun-18 15:33N 53°33' E 009°59'0 0.0
2016-Jun-18 14:33N 53°33' E 009°59'0 0.0
2016-Jun-18 13:33N 53°33' E 009°59'0 0.0
2016-Jun-18 12:33N 53°33' E 009°59'0 0.0
2016-Jun-18 11:33N 53°33' E 009°59'0 0.0
2016-Jun-18 10:33N 53°33' E 009°59'0 0.0
2016-Jun-18 09:33N 53°33' E 009°59'0 0.0
2016-Jun-18 08:33N 53°33' E 009°59'0 0.0
2016-Jun-18 07:33N 53°33' E 009°59'0 0.0
2016-Jun-18 06:33N 53°33' E 009°59'0 0.0
2016-Jun-18 05:33N 53°33' E 009°59'3 3.2
2016-Jun-18 04:33N 53°32' E 009°53'9 9.0
2016-Jun-18 03:33N 53°34' E 009°38'9 9.2
2016-Jun-18 02:33N 53°42' E 009°30'10 9.8
2016-Jun-18 01:33N 53°50' E 009°20'9 9.0
2016-Jun-18 00:33N 53°53' E 009°06'1010.0
2016-Jun-17 23:33N 53°50' E 008°49'10 9.9
2016-Jun-17 22:33N 53°57' E 008°37'1010.1
2016-Jun-17 21:33N 53°59' E 008°20'8 8.3
2016-Jun-17 20:34N 53°59' E 008°06'6 6.2
2016-Jun-17 19:33N 53°57' E 007°56'7 6.9
2016-Jun-17 18:30N 53°56' E 007°44'7 7.1
2016-Jun-17 17:27N 53°54' E 007°31'6 6.8
2016-Jun-17 16:33N 53°53' E 007°21'5 4.8
2016-Jun-17 15:34N 53°52' E 007°14'4 4.0
2016-Jun-17 14:33N 53°51' E 007°07'3 3.1
2016-Jun-17 13:33N 53°50' E 007°02'2 1.7
2016-Jun-17 12:33N 53°50' E 006°59'1 1.2
2016-Jun-17 11:33N 53°49' E 006°57'1 0.9
2016-Jun-17 10:33N 53°49' E 006°56'1 1.1
2016-Jun-17 09:33N 53°49' E 006°54'2 1.7
2016-Jun-17 08:33N 53°49' E 006°51'3 3.4
2016-Jun-17 07:33N 53°48' E 006°46'5 5.3
2016-Jun-17 06:33N 53°47' E 006°37'1312.6
2016-Jun-17 05:33N 53°44' E 006°16'1413.5
2016-Jun-17 04:33N 53°40' E 005°54'1313.4
2016-Jun-17 03:33N 53°36' E 005°33'1413.6
2016-Jun-17 02:33N 53°32' E 005°11'3112.7
2016-Jun-17 00:05N 53°11' E 004°31'812.8
2016-Jun-16 23:29N 53°04' E 004°25'1312.2
2016-Jun-16 22:28N 52°53' E 004°15'1111.6
2016-Jun-16 21:32N 52°43' E 004°11'1111.5
2016-Jun-16 20:33N 52°33' E 004°21'1010.4
2016-Jun-16 19:33N 52°28' E 004°36'3 2.7
2016-Jun-16 18:34N 52°27' E 004°40'9 9.1
2016-Jun-16 17:33N 52°23' E 004°54'1 1.2
2016-Jun-16 16:32N 52°23' E 004°55'0 0.0
2016-Jun-16 15:32N 52°23' E 004°55'0 0.0
2016-Jun-16 14:32N 52°23' E 004°55'0 0.0
2016-Jun-16 13:32N 52°23' E 004°55'0 0.0
2016-Jun-16 12:32N 52°23' E 004°55'0 0.0
2016-Jun-16 11:32N 52°23' E 004°55'0 0.0
2016-Jun-16 10:32N 52°23' E 004°55'0 0.0
2016-Jun-16 09:32N 52°23' E 004°55'0 0.0
2016-Jun-16 08:32N 52°23' E 004°55'0 0.0
2016-Jun-16 07:32N 52°23' E 004°55'0 0.0
2016-Jun-16 06:32N 52°23' E 004°55'0 0.0
2016-Jun-16 05:32N 52°23' E 004°55'0 0.0
2016-Jun-16 04:32N 52°23' E 004°55'0 0.0
2016-Jun-16 03:32N 52°23' E 004°55'0 0.0
2016-Jun-16 02:32N 52°23' E 004°55'0 0.0
2016-Jun-16 01:32N 52°23' E 004°55'0 0.0
2016-Jun-16 00:32N 52°23' E 004°55'0 0.0
2016-Jun-15 23:32N 52°23' E 004°55'0 0.0
2016-Jun-15 22:32N 52°23' E 004°55'0 0.0
2016-Jun-15 21:32N 52°23' E 004°55'0 0.0
2016-Jun-15 20:32N 52°23' E 004°55'0 0.0
2016-Jun-15 19:32N 52°23' E 004°55'0 0.0
2016-Jun-15 18:32N 52°23' E 004°55'0 0.0
2016-Jun-15 17:32N 52°23' E 004°55'0 0.0
2016-Jun-15 16:32N 52°23' E 004°55'0 0.0
2016-Jun-15 15:32N 52°23' E 004°55'0 0.0
2016-Jun-15 14:32N 52°23' E 004°55'0 0.0
2016-Jun-15 13:32N 52°23' E 004°55'0 0.0
2016-Jun-15 12:32N 52°23' E 004°55'0 0.0
2016-Jun-15 11:32N 52°23' E 004°55'0 0.0
2016-Jun-15 10:32N 52°23' E 004°55'0 0.0
2016-Jun-15 09:32N 52°23' E 004°55'2 1.6
2016-Jun-15 08:34N 52°24' E 004°53'9 9.2
2016-Jun-15 07:34N 52°28' E 004°40'5 5.0
2016-Jun-15 06:34N 52°28' E 004°32'9 9.1
2016-Jun-15 05:33N 52°28' E 004°17'7 6.5
2016-Jun-15 04:33N 52°28' E 004°06'  

Dump ship's entire track history